Latest Coastal Weather Observations for Neptune Island

IDT60701

Issued at 7:12 am EDT Saturday 31 January 2015 (issued every 10 minutes, with the page automatically refreshed every 10 minutes)

About coastal observations | Map of coastal stations | Coastal observations for TAS | Marine services | Other Formats
Station Details ID: 018115 Name: NEPTUNE ISLAND Lat: -35.34 Lon: 136.12 Height: 32.0 m
Data from the previous 72 hours. | See also: Recent months at Neptune Island
Date/Time
EDT
Temp

°C
Wind Pressure Rain
since 9am
mm
Weather Cloud Vis
km
Sea
Height
m
Swell
Dir
 
Speed
knots
Gust
knots
hPa Trend Height
m
Period
s
Dir
31/07:00am 16.5 ESE 14 17 1016.0 - 0.0 - - - - - - -
31/06:30am 16.7 SE 15 19 1015.8 - 0.0 - - - - - - -
31/06:00am 16.3 ESE 14 17 1015.8 - 0.0 - - - - - - -
31/05:30am 16.6 SE 19 22 1015.7 - 0.0 - - - - - - -
31/05:00am 16.6 ESE 18 22 1015.6 - 0.0 - - - - - - -
31/04:30am 16.2 ESE 18 23 1015.6 - 0.0 - - - - - - -
31/04:00am 16.2 ESE 19 23 1015.9 - 0.0 - - - - - - -
31/03:30am 16.3 ESE 21 25 1015.6 - 0.0 - - - - - - -
31/03:00am 16.2 SE 21 26 1015.4 - 0.0 - - - - - - -
31/02:30am 16.2 SE 21 26 1015.3 - 0.0 - - - - - - -
31/02:00am 16.4 SE 24 28 1015.6 - 0.0 - - - - - - -
31/01:30am 16.4 SE 22 29 1015.9 - 0.0 - - - - - - -
31/01:00am 16.4 SE 22 26 1016.4 - 0.0 - - - - - - -
31/12:30am 16.3 SE 21 26 1016.5 - 0.0 - - - - - - -
31/12:00am 16.4 SE 21 26 1016.3 - 0.0 - - - - - - -
 
Date/Time
EDT
Temp

°C
Wind Pressure Rain
since 9am
mm
Weather Cloud Vis
km
Sea
Height
m
Swell
Dir
 
Speed
knots
Gust
knots
hPa Trend Height
m
Period
s
Dir
30/11:30pm 16.4 SE 23 28 1016.3 - 0.0 - - - - - - -
30/11:00pm 16.6 SE 22 26 1016.4 - 0.0 - - - - - - -
30/10:30pm 17.0 SE 20 25 1016.5 - 0.0 - - - - - - -
30/10:00pm 17.2 SE 21 26 1016.3 - 0.0 - - - - - - -
30/09:30pm 17.1 SSE 22 26 1016.0 - 0.0 - - - - - - -
30/09:00pm 17.3 SSE 25 30 1015.7 - 0.0 - - - - - - -
30/08:30pm 17.6 SSE 26 32 1015.6 - 0.0 - - - - - - -
30/08:00pm 17.8 SSE 26 31 1015.3 - 0.0 - - - - - - -
30/07:30pm 18.3 SSE 26 31 1015.0 - 0.0 - - - - - - -
30/07:00pm 18.5 SSE 26 31 1014.8 - 0.0 - - - - - - -
30/06:30pm 18.9 SSE 23 31 1014.9 - 0.0 - - - - - - -
30/06:00pm 19.5 SSE 23 27 1015.1 - 0.0 - - - - - - -
30/05:30pm 19.8 SSE 22 27 1015.4 - 0.0 - - - - - - -
30/05:00pm 20.6 SSE 19 24 1015.5 - 0.0 - - - - - - -
30/04:30pm 21.5 SSE 18 22 1015.6 - 0.0 - - - - - - -
30/04:00pm 21.1 SSE 16 19 1015.8 - 0.0 - - - - - - -
30/03:30pm 21.3 SSE 13 16 1016.0 - 0.0 - - - - - - -
30/03:00pm 21.6 SSE 11 13 1016.2 - 0.0 - - - - - - -
30/02:30pm 22.3 SE 12 15 1016.6 - 0.0 - - - - - - -
30/02:00pm 22.2 ESE 13 16 1016.8 - 0.0 - - - - - - -
30/01:30pm 22.1 ESE 14 17 1017.0 - 0.0 - - - - - - -
30/01:00pm 21.7 ESE 17 20 1017.0 - 0.0 - - - - - - -
30/12:30pm 21.4 ESE 17 20 1017.1 - 0.0 - - - - - - -
30/12:00pm 20.8 ESE 18 21 1017.2 - 0.0 - - - - - - -
30/11:30am 19.9 ESE 19 23 1017.2 - 0.0 - - - - - - -
30/11:00am 19.6 ESE 20 24 1017.3 - 0.0 - - - - - - -
30/10:30am 19.2 ESE 20 24 1017.2 - 0.0 - - - - - - -
30/10:00am 18.9 E 19 23 1017.2 - 0.0 - - - - - - -
30/09:30am 18.9 E 19 24 1017.1 - 0.0 - - - - - - -
30/09:00am 18.1 ESE 19 22 1016.9 - 0.0 - - - - - - -
30/08:30am 17.6 ESE 20 23 1016.6 - 0.0 - - - - - - -
30/08:00am 17.1 ESE 19 23 1016.3 - 0.0 - - - - - - -
30/07:30am 16.9 ESE 19 24 1016.0 - 0.0 - - - - - - -
30/07:00am 16.9 ESE 21 24 1015.6 - 0.0 - - - - - - -
30/06:30am 17.1 ESE 19 24 1015.6 - 0.0 - - - - - - -
30/06:00am 17.3 ESE 21 24 1015.3 - 0.0 - - - - - - -
30/05:30am 17.2 ESE 20 24 1015.1 - 0.0 - - - - - - -
30/05:00am 17.1 ESE 16 20 1015.1 - 0.0 - - - - - - -
30/04:30am 17.0 ESE 17 21 1015.2 - 0.0 - - - - - - -
30/04:00am 17.0 ESE 16 19 1015.6 - 0.0 - - - - - - -
30/03:30am 17.1 ESE 17 20 1015.6 - 0.0 - - - - - - -
30/03:00am 17.1 ESE 18 21 1015.9 - 0.0 - - - - - - -
30/02:30am 17.2 ESE 19 23 1015.9 - 0.0 - - - - - - -
30/02:00am 17.2 ESE 17 20 1016.0 - 0.0 - - - - - - -
30/01:30am 17.0 SE 18 21 1016.1 - 0.0 - - - - - - -
30/01:00am 17.1 ESE 19 22 1016.2 - 0.0 - - - - - - -
30/12:30am 17.2 SE 20 23 1016.2 - 0.0 - - - - - - -
30/12:00am 17.3 SE 21 24 1016.4 - 0.0 - - - - - - -
 
Date/Time
EDT
Temp

°C
Wind Pressure Rain
since 9am
mm
Weather Cloud Vis
km
Sea
Height
m
Swell
Dir
 
Speed
knots
Gust
knots
hPa Trend Height
m
Period
s
Dir
29/11:30pm 17.3 SE 21 25 1016.6 - 0.0 - - - - - - -
29/11:00pm 17.5 SE 21 25 1016.7 - 0.0 - - - - - - -
29/10:30pm 18.0 SE 22 27 1016.4 - 0.0 - - - - - - -
29/10:00pm 18.3 SE 22 27 1015.8 - 0.0 - - - - - - -
29/09:30pm 18.9 SE 21 25 1015.9 - 0.0 - - - - - - -
29/09:00pm 18.9 SE 19 25 1015.8 - 0.0 - - - - - - -
29/08:30pm 19.7 SE 16 21 1015.8 - 0.0 - - - - - - -
29/08:00pm 20.1 SSE 14 17 1015.8 - 0.0 - - - - - - -
29/07:30pm 20.6 SSE 12 15 1015.8 - 0.0 - - - - - - -
29/07:00pm 20.9 SSE 11 13 1015.8 - 0.0 - - - - - - -
29/06:30pm 21.1 SSE 11 13 1015.8 - 0.0 - - - - - - -
29/06:00pm 21.8 SSE 11 13 1016.0 - 0.0 - - - - - - -
29/05:30pm 22.0 SSE 11 13 1016.3 - 0.0 - - - - - - -
29/05:00pm 22.2 SSE 9 11 1016.6 - 0.0 - - - - - - -
29/04:30pm 22.2 SSE 10 11 1016.9 - 0.0 - - - - - - -
29/04:00pm 22.1 SSE 7 8 1017.2 - 0.0 - - - - - - -
29/03:30pm 22.1 S 6 7 1017.5 - 0.0 - - - - - - -
29/03:00pm 21.2 ENE 8 10 1017.5 - 0.0 - - - - - - -
29/02:30pm 21.9 ENE 10 12 1017.7 - 0.0 - - - - - - -
29/02:00pm 21.6 ENE 11 13 1017.9 - 0.0 - - - - - - -
29/01:30pm 22.4 ENE 13 15 1018.1 - 0.0 - - - - - - -
29/01:00pm 22.8 E 14 16 1018.2 - 0.0 - - - - - - -
29/12:30pm 22.0 E 16 19 1018.3 - 0.0 - - - - - - -
29/12:00pm 21.8 E 17 20 1018.3 - 0.0 - - - - - - -
29/11:30am 20.8 E 16 20 1018.4 - 0.0 - - - - - - -
29/11:00am 20.7 E 19 24 1018.1 - 0.0 - - - - - - -
29/10:30am 20.6 E 19 24 1018.1 - 0.0 - - - - - - -
29/10:00am 20.0 E 18 22 1018.1 - 0.0 - - - - - - -
29/09:30am 19.5 E 18 22 1018.0 - 0.0 - - - - - - -
29/09:00am 18.9 E 20 26 1017.7 - 0.0 - - - - - - -
29/08:30am 18.3 ESE 22 25 1017.1 - 0.0 - - - - - - -
29/08:00am 17.9 ESE 19 22 1017.1 - 0.0 - - - - - - -
29/07:30am 17.4 ESE 19 23 1016.8 - 0.0 - - - - - - -
29/07:00am 17.2 ESE 15 20 1016.4 - 0.0 - - - - - - -
29/06:30am 17.2 ESE 15 19 1016.5 - 0.0 - - - - - - -
29/06:00am 17.2 ESE 15 18 1016.2 - 0.0 - - - - - - -
29/05:30am 17.3 ESE 17 19 1016.0 - 0.0 - - - - - - -
29/05:00am 17.3 ESE 16 19 1016.1 - 0.0 - - - - - - -
29/04:30am 17.3 ESE 17 20 1016.1 - 0.0 - - - - - - -
29/04:00am 17.3 ESE 17 19 1016.4 - 0.0 - - - - - - -
29/03:30am 17.2 ESE 16 18 1016.7 - 0.0 - - - - - - -
29/03:00am 17.1 ESE 15 18 1016.8 - 0.0 - - - - - - -
29/02:30am 17.0 ESE 18 20 1017.0 - 0.0 - - - - - - -
29/02:00am 17.0 SE 18 22 1017.1 - 0.0 - - - - - - -
29/01:30am 17.1 SE 17 20 1017.3 - 0.0 - - - - - - -
29/01:00am 17.1 SE 19 23 1017.3 - 0.0 - - - - - - -
29/12:30am 17.0 SE 19 23 1017.3 - 0.0 - - - - - - -
29/12:00am 17.1 SE 18 22 1017.6 - 0.0 - - - - - - -
 
Date/Time
EDT
Temp

°C
Wind Pressure Rain
since 9am
mm
Weather Cloud Vis
km
Sea
Height
m
Swell
Dir
 
Speed
knots
Gust
knots
hPa Trend Height
m
Period
s
Dir
28/11:30pm 17.0 SE 20 25 1017.7 - 0.0 - - - - - - -
28/11:00pm 17.0 SE 23 26 1017.6 - 0.0 - - - - - - -
28/10:30pm 16.9 SE 22 27 1017.7 - 0.0 - - - - - - -
28/10:00pm 17.0 SE 21 25 1017.6 - 0.0 - - - - - - -
28/09:30pm 17.2 SE 21 25 1017.5 - 0.0 - - - - - - -
28/09:00pm 17.5 SE 21 26 1017.6 - 0.0 - - - - - - -
28/08:30pm 17.5 SSE 24 29 1017.5 - 0.0 - - - - - - -
28/08:00pm 18.0 SSE 25 31 1017.3 - 0.0 - - - - - - -
28/07:30pm 18.1 SSE 25 31 1017.1 - 0.0 - - - - - - -
28/07:00pm 18.5 SSE 26 32 1017.3 - 0.0 - - - - - - -
28/06:30pm 18.9 SSE 24 30 1017.5 - 0.0 - - - - - - -
28/06:00pm 18.9 SSE 25 30 1017.6 - 0.0 - - - - - - -
28/05:30pm 19.1 SSE 25 31 1017.6 - 0.0 - - - - - - -
28/05:00pm 19.7 SSE 25 30 1017.6 - 0.0 - - - - - - -
28/04:30pm 19.8 SSE 25 30 1017.8 - 0.0 - - - - - - -
28/04:00pm 20.2 SSE 20 24 1018.2 - 0.0 - - - - - - -
28/03:30pm 20.9 SSE 18 23 1018.4 - 0.0 - - - - - - -
28/03:00pm 21.1 SSE 17 21 1018.7 - 0.0 - - - - - - -
28/02:30pm 21.7 SE 17 20 1019.1 - 0.0 - - - - - - -
28/02:00pm 20.5 ESE 12 14 1019.5 - 0.0 - - - - - - -
28/01:30pm 21.2 ESE 15 17 1019.6 - 0.0 - - - - - - -
28/01:00pm 20.9 ESE 15 18 1019.6 - 0.0 - - - - - - -
28/12:30pm 20.5 ESE 14 17 1019.8 - 0.0 - - - - - - -
28/12:00pm 19.2 ESE 18 21 1019.6 - 0.0 - - - - - - -
28/11:30am 18.8 ESE 17 20 1019.7 - 0.0 - - - - - - -
28/11:00am 18.7 ESE 17 21 1020.0 - 0.0 - - - - - - -
28/10:30am 17.8 ESE 20 24 1019.7 - 0.0 - - - - - - -
28/10:00am 17.4 ESE 19 23 1019.6 - 0.0 - - - - - - -
28/09:30am 17.9 ESE 20 25 1019.4 - 0.0 - - - - - - -
28/09:00am 16.8 ESE 20 24 1019.2 - 0.0 - - - - - - -
28/08:30am 16.3 ESE 19 23 1018.8 - 0.0 - - - - - - -
28/08:00am 16.3 ESE 21 26 1018.3 - 0.0 - - - - - - -

Other Formats:

Comma delimited format used in spreadsheet applications
http://www.bom.gov.au/fwo/IDT60701/IDT60701.94804.axf

JavaScript Object Notation format (JSON) in row-major order
http://www.bom.gov.au/fwo/IDT60701/IDT60701.94804.json